createdAt,value
2018-09-12T00:00:06.605Z,44.72
2018-09-12T00:02:35.949Z,44.69
2018-09-12T00:05:05.990Z,44.78
2018-09-12T00:07:35.289Z,45.29
2018-09-12T00:10:05.436Z,45.03
2018-09-12T00:12:35.442Z,44.71
2018-09-12T00:15:05.001Z,45.17
2018-09-12T00:17:34.433Z,45.42
2018-09-12T00:20:04.827Z,45.50
2018-09-12T00:22:34.202Z,45.37
2018-09-12T00:25:03.922Z,45.23
2018-09-12T00:27:33.908Z,45.40
2018-09-12T00:30:03.574Z,45.23
2018-09-12T00:32:32.877Z,45.53
2018-09-12T00:35:02.643Z,45.48
2018-09-12T00:37:32.001Z,45.53
2018-09-12T00:40:02.368Z,45.63
2018-09-12T00:42:31.721Z,45.31
2018-09-12T00:45:01.061Z,45.61
2018-09-12T00:47:30.405Z,45.87
2018-09-12T00:50:00.005Z,46.19
2018-09-12T00:52:29.707Z,45.95
2018-09-12T00:54:59.468Z,46.09
2018-09-12T00:57:29.161Z,46.08
2018-09-12T00:59:58.524Z,46.11
2018-09-12T01:02:27.810Z,46.24
2018-09-12T01:04:57.112Z,46.31
2018-09-12T01:07:26.458Z,46.46
2018-09-12T01:09:55.836Z,46.33
2018-09-12T01:12:25.482Z,46.44
2018-09-12T01:14:54.803Z,46.45
2018-09-12T01:17:24.184Z,46.59
2018-09-12T01:19:53.553Z,46.39
2018-09-12T01:22:22.935Z,47.02
2018-09-12T01:24:52.683Z,46.61
2018-09-12T01:27:22.074Z,47.11
2018-09-12T01:29:51.670Z,46.99
2018-09-12T01:32:21.026Z,46.87
2018-09-12T01:34:50.407Z,47.24
2018-09-12T01:37:19.761Z,47.30
2018-09-12T01:39:49.041Z,47.39
2018-09-12T01:42:18.659Z,47.48
2018-09-12T01:44:48.160Z,47.53
2018-09-12T01:47:17.534Z,47.65
2018-09-12T01:49:47.309Z,47.61
2018-09-12T01:52:16.931Z,47.57
2018-09-12T01:54:46.323Z,47.36
2018-09-12T01:57:15.653Z,47.45
2018-09-12T01:59:45.285Z,47.43
2018-09-12T02:02:15.013Z,47.35
2018-09-12T02:04:44.332Z,47.93
2018-09-12T02:07:13.660Z,47.81
2018-09-12T02:09:43.013Z,47.80
2018-09-12T02:12:12.375Z,48.20
2018-09-12T02:14:41.632Z,48.21
2018-09-12T02:17:10.996Z,48.42
2018-09-12T02:19:40.325Z,48.39
2018-09-12T02:22:09.754Z,48.49
2018-09-12T02:24:39.502Z,48.60
2018-09-12T02:27:17.269Z,48.50
2018-09-12T02:29:46.823Z,48.61
2018-09-12T02:32:16.298Z,48.93
2018-09-12T02:34:46.028Z,49.53
2018-09-12T02:37:15.423Z,49.38
2018-09-12T02:39:45.577Z,49.40
2018-09-12T02:42:14.917Z,49.47
2018-09-12T02:44:44.926Z,49.37
2018-09-12T02:47:19.570Z,49.24
2018-09-12T02:49:49.651Z,49.22
2018-09-12T02:52:18.965Z,49.36
2018-09-12T02:54:49.080Z,49.30
2018-09-12T02:57:18.393Z,49.06
2018-09-12T02:59:48.128Z,48.72
2018-09-12T03:02:17.805Z,49.11
2018-09-12T03:04:47.490Z,49.15
2018-09-12T03:07:16.813Z,49.37
2018-09-12T03:09:46.925Z,49.19
2018-09-12T03:12:16.774Z,49.07
2018-09-12T03:14:46.159Z,49.36
2018-09-12T03:17:15.961Z,49.64
2018-09-12T03:19:51.945Z,49.38
2018-09-12T03:22:21.295Z,49.45
2018-09-12T03:24:50.963Z,49.23
2018-09-12T03:27:21.009Z,49.14
2018-09-12T03:29:50.358Z,49.53
2018-09-12T03:32:20.008Z,49.59
2018-09-12T03:34:49.309Z,49.66
2018-09-12T03:37:18.945Z,49.40
2018-09-12T03:39:48.244Z,49.68
2018-09-12T03:42:17.668Z,49.56
2018-09-12T03:44:47.185Z,49.36
2018-09-12T03:47:16.940Z,49.69
2018-09-12T03:49:46.661Z,49.95
2018-09-12T03:52:15.998Z,49.88
2018-09-12T03:54:45.746Z,50.06
2018-09-12T03:57:15.775Z,50.05
2018-09-12T03:59:45.935Z,50.01
2018-09-12T04:02:15.244Z,50.18
2018-09-12T04:04:44.911Z,50.28
2018-09-12T04:07:14.573Z,50.57
2018-09-12T04:09:44.261Z,50.70
2018-09-12T04:12:13.677Z,50.85
2018-09-12T04:14:42.963Z,50.96
2018-09-12T04:17:12.286Z,50.85
2018-09-12T04:19:42.087Z,51.03
2018-09-12T04:22:11.409Z,51.17
2018-09-12T04:24:40.727Z,51.00
2018-09-12T04:27:10.292Z,51.11
2018-09-12T04:29:39.557Z,50.87
2018-09-12T04:32:09.070Z,51.08
2018-09-12T04:34:38.809Z,50.87
2018-09-12T04:37:08.807Z,51.15
2018-09-12T04:39:38.094Z,50.87
2018-09-12T04:42:07.408Z,50.64
2018-09-12T04:44:37.070Z,50.88
2018-09-12T04:47:06.413Z,50.94
2018-09-12T04:49:35.695Z,50.85
2018-09-12T04:52:05.794Z,50.63
2018-09-12T04:54:35.840Z,50.96
2018-09-12T04:57:05.750Z,51.01
2018-09-12T04:59:35.215Z,50.87
2018-09-12T05:02:04.573Z,50.74
2018-09-12T05:04:34.344Z,50.59
2018-09-12T05:07:04.005Z,50.83
2018-09-12T05:09:33.305Z,50.70
2018-09-12T05:12:02.674Z,50.57
2018-09-12T05:14:32.061Z,50.44
2018-09-12T05:17:01.846Z,50.47
2018-09-12T05:19:31.241Z,50.20
2018-09-12T05:22:00.912Z,50.02
2018-09-12T05:24:30.232Z,49.86
2018-09-12T05:26:59.903Z,49.73
2018-09-12T05:29:29.279Z,49.61
2018-09-12T05:31:59.093Z,49.37
2018-09-12T05:34:28.496Z,49.19
2018-09-12T05:36:57.778Z,49.43
2018-09-12T05:39:27.394Z,49.17
2018-09-12T05:41:56.765Z,49.06
2018-09-12T05:44:26.044Z,49.25
2018-09-12T05:46:56.034Z,48.73
2018-09-12T05:49:25.682Z,48.28
2018-09-12T05:51:55.221Z,48.13
2018-09-12T05:54:24.571Z,47.33
2018-09-12T05:56:53.983Z,47.25
2018-09-12T05:59:23.302Z,46.88
2018-09-12T06:01:52.630Z,47.00
2018-09-12T06:04:21.978Z,46.87
2018-09-12T06:06:51.725Z,46.76
2018-09-12T06:09:21.447Z,46.63
2018-09-12T06:11:51.195Z,46.41
2018-09-12T06:14:21.269Z,46.39
2018-09-12T06:16:50.637Z,46.31
2018-09-12T06:19:19.971Z,46.00
2018-09-12T06:21:49.354Z,45.46
2018-09-12T06:24:18.962Z,45.33
2018-09-12T06:26:48.323Z,45.07
2018-09-12T06:29:18.027Z,44.81
2018-09-12T06:31:47.817Z,44.26
2018-09-12T06:34:17.487Z,44.72
2018-09-12T06:36:46.848Z,44.14
2018-09-12T06:39:16.236Z,43.93
2018-09-12T06:41:45.570Z,44.13
2018-09-12T06:44:15.365Z,43.75
2018-09-12T06:46:45.010Z,43.86
2018-09-12T06:49:14.354Z,43.81
2018-09-12T06:51:43.642Z,43.79
2018-09-12T06:54:12.917Z,43.44
2018-09-12T06:56:42.254Z,43.25
2018-09-12T06:59:11.552Z,43.37
2018-09-12T07:01:41.222Z,43.15
2018-09-12T07:04:10.562Z,42.75
2018-09-12T07:06:39.845Z,42.34
2018-09-12T07:09:10.581Z,42.72
2018-09-12T07:11:39.945Z,42.22
2018-09-12T07:14:09.321Z,41.68
2018-09-12T07:16:38.710Z,41.56
2018-09-12T07:19:08.055Z,41.82
2018-09-12T07:21:37.392Z,41.46
2018-09-12T07:24:07.045Z,41.48
2018-09-12T07:26:36.675Z,41.05
2018-09-12T07:29:06.675Z,40.83
2018-09-12T07:31:35.930Z,40.93
2018-09-12T07:34:05.279Z,40.63
2018-09-12T07:36:34.619Z,40.37
2018-09-12T07:39:08.361Z,39.32
2018-09-12T07:41:37.752Z,38.68
2018-09-12T07:44:07.241Z,38.64
2018-09-12T07:46:37.334Z,38.96
2018-09-12T07:49:07.562Z,38.36
2018-09-12T07:51:37.841Z,38.93
2018-09-12T07:54:06.967Z,39.02
2018-09-12T07:56:36.347Z,38.53
2018-09-12T07:59:05.688Z,38.44
2018-09-12T08:01:34.983Z,38.02
2018-09-12T08:04:04.306Z,38.25
2018-09-12T08:06:34.081Z,38.47
2018-09-12T08:09:03.631Z,37.98
2018-09-12T08:11:33.390Z,38.46
2018-09-12T08:14:02.692Z,38.23
2018-09-12T08:16:32.001Z,38.58
2018-09-12T08:19:01.660Z,38.50
2018-09-12T08:21:31.363Z,38.64
2018-09-12T08:24:01.026Z,38.45
2018-09-12T08:26:30.515Z,38.15
2018-09-12T08:29:00.198Z,38.27
2018-09-12T08:31:29.822Z,38.73
2018-09-12T08:33:59.191Z,37.51
2018-09-12T08:36:29.549Z,37.19
2018-09-12T08:38:59.114Z,36.88
2018-09-12T08:41:28.522Z,36.62
2018-09-12T08:43:58.216Z,36.13
2018-09-12T08:46:27.531Z,36.29
2018-09-12T08:48:57.237Z,36.40
2018-09-12T08:51:26.509Z,36.48
2018-09-12T08:53:56.193Z,36.31
2018-09-12T08:56:25.820Z,35.81
2018-09-12T08:58:56.165Z,35.99
2018-09-12T09:01:25.958Z,36.46
2018-09-12T09:03:55.397Z,36.63
2018-09-12T09:06:24.808Z,36.37
2018-09-12T09:08:55.183Z,36.06
2018-09-12T09:11:25.095Z,35.44
2018-09-12T09:13:55.419Z,35.28
2018-09-12T09:16:25.114Z,35.77
2018-09-12T09:18:54.869Z,34.78
2018-09-12T09:21:24.206Z,36.22
2018-09-12T09:23:53.501Z,36.59
2018-09-12T09:26:23.157Z,36.26
2018-09-12T09:28:52.949Z,37.06
2018-09-12T09:31:23.068Z,37.99
2018-09-12T09:33:52.812Z,38.95
2018-09-12T09:36:22.137Z,38.96
2018-09-12T09:38:51.440Z,35.74
2018-09-12T09:41:20.771Z,32.90
2018-09-12T09:43:50.077Z,30.37
2018-09-12T09:46:20.078Z,28.64
2018-09-12T09:48:49.438Z,28.79
2018-09-12T09:51:18.799Z,28.44
2018-09-12T09:53:48.164Z,29.00
2018-09-12T09:56:17.808Z,29.29
2018-09-12T09:58:47.442Z,28.79
2018-09-12T10:01:22.132Z,28.07
2018-09-12T10:03:56.633Z,29.11
2018-09-12T10:06:28.153Z,28.31
2018-09-12T10:08:58.949Z,27.96
2018-09-12T10:11:29.030Z,28.28
2018-09-12T10:13:58.792Z,31.49
2018-09-12T10:16:28.827Z,29.85
2018-09-12T10:18:58.578Z,33.07
2018-09-12T10:21:27.911Z,34.38
2018-09-12T10:23:57.650Z,34.51
2018-09-12T10:26:26.973Z,32.46
2018-09-12T10:28:56.687Z,30.46
2018-09-12T10:31:26.870Z,32.71
2018-09-12T10:33:56.242Z,33.40
2018-09-12T10:36:25.562Z,32.82
2018-09-12T10:38:55.658Z,31.26
2018-09-12T10:41:25.281Z,32.60
2018-09-12T10:43:54.657Z,32.17
2018-09-12T10:46:24.256Z,33.53
2018-09-12T10:48:53.514Z,32.96
2018-09-12T10:51:22.801Z,31.73
2018-09-12T10:53:52.475Z,32.61
2018-09-12T10:56:21.802Z,32.61
2018-09-12T10:58:52.048Z,33.11
2018-09-12T11:01:21.356Z,31.49
2018-09-12T11:03:51.079Z,31.76
2018-09-12T11:06:20.742Z,31.31
2018-09-12T11:08:51.272Z,30.19
2018-09-12T11:11:20.961Z,32.98
2018-09-12T11:13:50.362Z,33.38
2018-09-12T11:16:19.741Z,34.49
2018-09-12T11:18:49.254Z,35.49
2018-09-12T11:21:18.549Z,35.66
2018-09-12T11:23:48.289Z,35.37
2018-09-12T11:26:17.857Z,35.72
2018-09-12T11:28:47.619Z,34.43
2018-09-12T11:31:17.565Z,34.32
2018-09-12T11:33:47.178Z,32.53
2018-09-12T11:36:16.801Z,33.09
2018-09-12T11:38:46.085Z,32.61
2018-09-12T11:41:15.387Z,32.64
2018-09-12T11:43:44.719Z,32.69
2018-09-12T11:46:14.366Z,32.91
2018-09-12T11:48:44.104Z,33.11
2018-09-12T11:51:13.427Z,32.96
2018-09-12T11:53:43.096Z,32.43
2018-09-12T11:56:12.780Z,32.79
2018-09-12T11:58:42.133Z,33.31
2018-09-12T12:01:11.447Z,33.26
2018-09-12T12:03:41.540Z,33.62
2018-09-12T12:06:10.913Z,33.28
2018-09-12T12:08:40.202Z,32.79
2018-09-12T12:11:09.845Z,31.51
2018-09-12T12:13:39.748Z,31.66
2018-09-12T12:16:09.788Z,31.62
2018-09-12T12:18:39.090Z,31.78
2018-09-12T12:21:08.349Z,32.01
2018-09-12T12:23:37.715Z,31.64
2018-09-12T12:26:07.523Z,31.22
2018-09-12T12:28:37.745Z,31.40
2018-09-12T12:31:07.356Z,30.58
2018-09-12T12:33:37.034Z,30.67
2018-09-12T12:36:07.037Z,31.37
2018-09-12T12:38:36.403Z,31.17
2018-09-12T12:41:06.667Z,30.54
2018-09-12T12:43:36.285Z,30.57
2018-09-12T12:46:06.049Z,30.98
2018-09-12T12:48:35.353Z,29.80
2018-09-12T12:51:05.112Z,29.88
2018-09-12T12:53:34.435Z,30.56
2018-09-12T12:56:03.778Z,30.86
2018-09-12T12:58:34.285Z,31.10
2018-09-12T13:01:03.570Z,30.43
2018-09-12T13:03:32.905Z,30.32
2018-09-12T13:06:02.951Z,31.12
2018-09-12T13:08:32.396Z,31.72
2018-09-12T13:11:02.031Z,30.45
2018-09-12T13:13:31.741Z,30.67
2018-09-12T13:16:01.387Z,30.43
2018-09-12T13:18:30.935Z,31.06
2018-09-12T13:21:00.266Z,29.77
2018-09-12T13:23:29.934Z,29.62
2018-09-12T13:25:59.244Z,30.23
2018-09-12T13:28:29.094Z,29.86
2018-09-12T13:30:58.417Z,29.17
2018-09-12T13:33:28.121Z,29.63
2018-09-12T13:35:57.767Z,29.22
2018-09-12T13:38:27.084Z,30.82
2018-09-12T13:40:56.469Z,30.46
2018-09-12T13:43:25.764Z,31.35
2018-09-12T13:45:55.325Z,30.89
2018-09-12T13:48:25.030Z,31.68
2018-09-12T13:50:54.325Z,30.80
2018-09-12T13:53:25.309Z,30.83
2018-09-12T13:55:54.749Z,30.98
2018-09-12T13:58:24.517Z,31.73
2018-09-12T14:00:53.863Z,32.33
2018-09-12T14:03:23.275Z,31.88
2018-09-12T14:05:52.810Z,32.91
2018-09-12T14:08:22.596Z,33.38
2018-09-12T14:10:52.660Z,32.43
2018-09-12T14:13:21.940Z,33.75
2018-09-12T14:15:51.587Z,33.82
2018-09-12T14:18:21.888Z,33.66
2018-09-12T14:20:51.178Z,33.46
2018-09-12T14:23:21.401Z,33.82
2018-09-12T14:25:50.709Z,34.87
2018-09-12T14:28:20.063Z,35.64
2018-09-12T14:30:50.105Z,35.17
2018-09-12T14:33:20.195Z,34.64
2018-09-12T14:35:49.948Z,34.45
2018-09-12T14:38:19.560Z,34.47
2018-09-12T14:40:49.262Z,33.97
2018-09-12T14:43:18.904Z,33.92
2018-09-12T14:45:48.226Z,33.72
2018-09-12T14:48:17.880Z,34.53
2018-09-12T14:50:47.243Z,37.11
2018-09-12T14:53:16.514Z,39.43
2018-09-12T14:55:45.809Z,40.15
2018-09-12T14:58:15.161Z,40.09
2018-09-12T15:00:45.261Z,40.70
2018-09-12T15:03:14.617Z,40.51
2018-09-12T15:05:43.889Z,40.63
2018-09-12T15:08:14.060Z,41.38
2018-09-12T15:10:43.370Z,42.81
2018-09-12T15:13:12.748Z,43.25
2018-09-12T15:15:42.099Z,41.85
2018-09-12T15:18:11.793Z,42.14
2018-09-12T15:20:41.109Z,42.72
2018-09-12T15:23:10.458Z,42.85
2018-09-12T15:25:39.987Z,42.65
2018-09-12T15:28:10.848Z,42.53
2018-09-12T15:30:40.172Z,42.63
2018-09-12T15:33:10.328Z,43.40
2018-09-12T15:35:39.682Z,43.59
2018-09-12T15:38:09.696Z,43.35
2018-09-12T15:40:39.411Z,44.36
2018-09-12T15:43:09.542Z,44.85
2018-09-12T15:45:39.272Z,44.88
2018-09-12T15:48:08.573Z,45.75
2018-09-12T15:50:38.077Z,46.94
2018-09-12T15:53:07.682Z,46.54
2018-09-12T15:55:36.977Z,46.81
2018-09-12T15:58:06.286Z,46.61
2018-09-12T16:00:35.874Z,47.10
2018-09-12T16:03:05.261Z,47.07
2018-09-12T16:05:34.563Z,47.39
2018-09-12T16:08:04.335Z,47.46
2018-09-12T16:10:33.615Z,47.84
2018-09-12T16:13:02.893Z,49.10
2018-09-12T16:15:32.240Z,49.74
2018-09-12T16:18:01.574Z,49.99
2018-09-12T16:20:31.342Z,50.46
2018-09-12T16:23:00.678Z,50.63
2018-09-12T16:25:30.004Z,51.17
2018-09-12T16:27:59.737Z,50.89
2018-09-12T16:30:29.062Z,51.32
2018-09-12T16:32:58.757Z,51.74
2018-09-12T16:35:28.045Z,52.39
2018-09-12T16:37:57.358Z,52.32
2018-09-12T16:40:26.883Z,52.10
2018-09-12T16:42:56.141Z,52.68
2018-09-12T16:45:25.447Z,53.08
2018-09-12T16:47:54.733Z,53.14
2018-09-12T16:50:24.048Z,53.61
2018-09-12T16:52:53.760Z,53.66
2018-09-12T16:55:23.339Z,53.53
2018-09-12T16:57:52.663Z,53.78
2018-09-12T17:00:22.330Z,53.36
2018-09-12T17:02:51.637Z,53.26
2018-09-12T17:05:21.422Z,52.94
2018-09-12T17:07:50.704Z,53.12
2018-09-12T17:10:19.960Z,53.47
2018-09-12T17:12:49.566Z,53.53
2018-09-12T17:15:18.874Z,53.79
2018-09-12T17:17:48.862Z,53.40
2018-09-12T17:20:18.139Z,53.63
2018-09-12T17:22:49.048Z,53.31
2018-09-12T17:25:18.331Z,53.68
2018-09-12T17:27:48.005Z,53.87
2018-09-12T17:30:17.342Z,53.53
2018-09-12T17:32:47.408Z,53.80
2018-09-12T17:35:17.021Z,53.70
2018-09-12T17:37:46.294Z,54.25
2018-09-12T17:40:15.674Z,53.98
2018-09-12T17:42:45.296Z,53.34
2018-09-12T17:45:15.353Z,53.39
2018-09-12T17:47:45.522Z,53.67
2018-09-12T17:50:21.717Z,53.78
2018-09-12T17:52:50.984Z,53.79
2018-09-12T17:55:20.723Z,54.21
2018-09-12T17:57:50.623Z,54.18
2018-09-12T18:00:20.227Z,54.37
2018-09-12T18:02:49.508Z,53.96
2018-09-12T18:05:19.233Z,54.08
2018-09-12T18:07:48.862Z,54.14
2018-09-12T18:10:18.598Z,54.17
2018-09-12T18:12:48.620Z,53.85
2018-09-12T18:15:17.939Z,54.02
2018-09-12T18:17:47.214Z,53.82
2018-09-12T18:20:17.075Z,53.78
2018-09-12T18:22:46.650Z,53.62
2018-09-12T18:25:15.974Z,54.01
2018-09-12T18:27:45.600Z,53.93
2018-09-12T18:30:15.111Z,53.83
2018-09-12T18:32:44.450Z,54.17
2018-09-12T18:35:14.186Z,54.21
2018-09-12T18:37:43.879Z,54.54
2018-09-12T18:40:13.147Z,54.51
2018-09-12T18:42:42.803Z,54.54
2018-09-12T18:45:12.090Z,54.71
2018-09-12T18:47:41.329Z,55.06
2018-09-12T18:50:10.650Z,55.33
2018-09-12T18:52:40.511Z,55.59
2018-09-12T18:55:10.229Z,55.60
2018-09-12T18:57:39.557Z,56.34
2018-09-12T19:00:08.882Z,56.06
2018-09-12T19:02:38.868Z,56.55
2018-09-12T19:05:08.867Z,56.43
2018-09-12T19:07:44.462Z,56.73
2018-09-12T19:10:14.131Z,56.81
2018-09-12T19:12:43.590Z,57.11
2018-09-12T19:15:13.214Z,56.90
2018-09-12T19:17:42.495Z,57.42
2018-09-12T19:20:11.832Z,57.14
2018-09-12T19:22:41.165Z,57.34
2018-09-12T19:25:11.193Z,57.25
2018-09-12T19:27:40.479Z,57.58
2018-09-12T19:30:10.194Z,57.41
2018-09-12T19:32:39.513Z,57.49
2018-09-12T19:35:09.748Z,57.91
2018-09-12T19:37:39.292Z,57.84
2018-09-12T19:40:08.906Z,57.80
2018-09-12T19:42:38.817Z,57.74
2018-09-12T19:45:08.537Z,57.84
2018-09-12T19:47:38.159Z,57.97
2018-09-12T19:50:08.271Z,57.84
2018-09-12T19:52:37.986Z,57.73
2018-09-12T19:55:07.284Z,57.90
2018-09-12T19:57:36.621Z,57.85
2018-09-12T20:00:12.507Z,57.93
2018-09-12T20:02:41.744Z,57.92
2018-09-12T20:05:11.114Z,57.89
2018-09-12T20:07:41.125Z,58.25
2018-09-12T20:10:10.617Z,58.19
2018-09-12T20:12:46.680Z,58.38
2018-09-12T20:15:16.015Z,58.53
2018-09-12T20:17:45.341Z,58.27
2018-09-12T20:20:14.627Z,58.36
2018-09-12T20:22:44.210Z,58.87
2018-09-12T20:25:13.579Z,58.49
2018-09-12T20:27:42.859Z,58.08
2018-09-12T20:30:12.163Z,58.42
2018-09-12T20:32:41.454Z,58.49
2018-09-12T20:35:11.211Z,58.65
2018-09-12T20:37:40.479Z,58.87
2018-09-12T20:40:09.765Z,58.77
2018-09-12T20:42:39.139Z,58.43
2018-09-12T20:45:08.719Z,58.31
2018-09-12T20:47:38.412Z,58.27
2018-09-12T20:50:14.718Z,58.46
2018-09-12T20:52:44.323Z,58.54
2018-09-12T20:55:13.698Z,59.09
2018-09-12T20:57:43.403Z,59.86
2018-09-12T21:00:12.708Z,60.21
2018-09-12T21:02:42.770Z,59.88
2018-09-12T21:05:12.039Z,59.87
2018-09-12T21:07:41.297Z,59.70
2018-09-12T21:10:10.618Z,60.20
2018-09-12T21:12:40.021Z,60.42
2018-09-12T21:15:09.671Z,60.43
2018-09-12T21:17:39.033Z,60.48
2018-09-12T21:20:08.807Z,60.74
2018-09-12T21:22:38.147Z,60.74
2018-09-12T21:25:07.449Z,60.60
2018-09-12T21:27:36.811Z,60.68
2018-09-12T21:30:07.034Z,61.46
2018-09-12T21:32:36.791Z,62.04
2018-09-12T21:35:06.425Z,63.07
2018-09-12T21:37:36.056Z,64.47
2018-09-12T21:40:05.481Z,64.97
2018-09-12T21:42:34.835Z,64.82
2018-09-12T21:45:04.143Z,65.98
2018-09-12T21:47:33.521Z,66.42
2018-09-12T21:50:03.960Z,67.12
2018-09-12T21:52:33.923Z,67.20
2018-09-12T21:55:03.220Z,67.25
2018-09-12T21:57:32.860Z,67.86
2018-09-12T22:00:02.347Z,67.79
2018-09-12T22:02:31.659Z,68.60
2018-09-12T22:05:00.913Z,68.52
2018-09-12T22:07:30.271Z,68.84
2018-09-12T22:10:00.149Z,68.98
2018-09-12T22:12:29.810Z,68.97
2018-09-12T22:14:59.638Z,68.41
2018-09-12T22:17:29.097Z,68.16
2018-09-12T22:19:58.402Z,67.84
2018-09-12T22:22:27.700Z,67.52
2018-09-12T22:24:56.999Z,67.57
2018-09-12T22:27:26.306Z,67.14
2018-09-12T22:29:56.449Z,66.44
2018-09-12T22:32:26.163Z,65.77
2018-09-12T22:34:55.498Z,65.35
2018-09-12T22:37:24.780Z,63.54
2018-09-12T22:39:54.368Z,62.72
2018-09-12T22:42:23.974Z,62.58
2018-09-12T22:44:53.569Z,61.39
2018-09-12T22:47:22.889Z,61.10
2018-09-12T22:49:52.496Z,60.70
2018-09-12T22:52:22.201Z,59.96
2018-09-12T22:54:52.223Z,59.73
2018-09-12T22:57:21.842Z,59.51
2018-09-12T22:59:51.110Z,59.25
2018-09-12T23:02:20.368Z,59.28
2018-09-12T23:04:50.145Z,58.92
2018-09-12T23:07:19.776Z,58.64
2018-09-12T23:09:49.130Z,58.33
2018-09-12T23:12:18.873Z,57.74
2018-09-12T23:14:48.182Z,57.37
2018-09-12T23:17:17.831Z,58.75
2018-09-12T23:19:47.148Z,59.47
2018-09-12T23:22:16.863Z,59.80
2018-09-12T23:24:46.617Z,60.82
2018-09-12T23:27:15.990Z,61.08
2018-09-12T23:29:45.592Z,61.63
2018-09-12T23:32:14.913Z,60.98
2018-09-12T23:34:44.232Z,61.58
2018-09-12T23:37:13.504Z,61.36
2018-09-12T23:39:42.833Z,61.21
2018-09-12T23:42:12.158Z,61.08
2018-09-12T23:44:41.460Z,61.21
2018-09-12T23:47:10.826Z,60.93
2018-09-12T23:49:40.123Z,61.69
2018-09-12T23:52:09.438Z,61.79
2018-09-12T23:54:38.827Z,62.19
2018-09-12T23:57:08.161Z,61.85
2018-09-12T23:59:38.146Z,61.87
